createdAt,value
2019-04-27T00:02:23.115Z,7.33
2019-04-27T00:05:17.774Z,6.60
2019-04-27T00:08:02.968Z,6.40
2019-04-27T00:10:49.992Z,6.60
2019-04-27T00:13:19.192Z,7.13
2019-04-27T00:16:27.805Z,6.90
2019-04-27T00:19:05.710Z,7.33
2019-04-27T00:21:41.044Z,7.03
2019-04-27T00:24:08.430Z,6.93
2019-04-27T00:26:34.974Z,7.13
2019-04-27T00:29:03.713Z,7.90
2019-04-27T00:31:30.518Z,6.33
2019-04-27T00:33:57.057Z,6.47
2019-04-27T00:36:30.486Z,6.50
2019-04-27T00:39:34.831Z,6.87
2019-04-27T00:42:03.194Z,6.67
2019-04-27T00:44:29.986Z,7.77
2019-04-27T00:46:56.959Z,7.50
2019-04-27T00:49:24.023Z,7.43
2019-04-27T00:51:53.531Z,7.83
2019-04-27T00:54:20.468Z,8.53
2019-04-27T00:57:05.332Z,7.80
2019-04-27T01:00:04.961Z,8.17
2019-04-27T01:02:50.732Z,7.73
2019-04-27T01:05:23.086Z,7.47
2019-04-27T01:07:49.916Z,9.17
2019-04-27T01:10:16.891Z,8.77
2019-04-27T01:12:44.023Z,8.77
2019-04-27T01:15:10.640Z,9.30
2019-04-27T01:17:37.145Z,8.70
2019-04-27T01:20:04.057Z,8.63
2019-04-27T01:22:31.182Z,9.73
2019-04-27T01:24:59.364Z,9.07
2019-04-27T01:28:11.003Z,10.67
2019-04-27T01:30:51.031Z,9.47
2019-04-27T01:33:17.763Z,10.43
2019-04-27T01:35:44.290Z,9.67
2019-04-27T01:38:10.919Z,10.33
2019-04-27T01:40:38.586Z,10.00
2019-04-27T01:43:05.770Z,9.77
2019-04-27T01:45:32.302Z,10.33
2019-04-27T01:47:59.592Z,10.27
2019-04-27T01:50:26.420Z,10.53
2019-04-27T01:52:52.936Z,11.20
2019-04-27T01:55:19.555Z,10.63
2019-04-27T01:57:46.263Z,10.17
2019-04-27T02:00:34.952Z,10.50
2019-04-27T02:03:04.561Z,11.10
2019-04-27T02:06:07.180Z,9.90
2019-04-27T02:09:30.302Z,9.97
2019-04-27T02:11:59.081Z,10.57
2019-04-27T02:14:25.915Z,11.03
2019-04-27T02:16:53.953Z,10.87
2019-04-27T02:19:20.645Z,11.30
2019-04-27T02:21:51.111Z,11.03
2019-04-27T02:24:16.550Z,10.93
2019-04-27T02:26:43.316Z,10.03
2019-04-27T02:30:27.429Z,10.57
2019-04-27T02:33:20.266Z,10.73
2019-04-27T02:35:50.249Z,10.90
2019-04-27T02:38:15.606Z,10.43
2019-04-27T02:40:51.132Z,10.77
2019-04-27T02:43:20.104Z,11.37
2019-04-27T02:45:46.726Z,11.37
2019-04-27T02:48:13.566Z,12.17
2019-04-27T02:50:40.152Z,11.07
2019-04-27T02:53:06.711Z,11.50
2019-04-27T02:55:33.312Z,11.00
2019-04-27T02:58:00.012Z,10.53
2019-04-27T03:00:26.483Z,11.13
2019-04-27T03:02:56.945Z,10.87
2019-04-27T03:05:30.416Z,10.83
2019-04-27T03:07:59.324Z,11.53
2019-04-27T03:10:29.731Z,10.80
2019-04-27T03:13:07.374Z,12.43
2019-04-27T03:15:42.414Z,11.40
2019-04-27T03:18:13.768Z,10.83
2019-04-27T03:21:00.413Z,12.03
2019-04-27T03:23:26.599Z,11.70
2019-04-27T03:26:19.422Z,12.00
2019-04-27T03:28:45.808Z,10.93
2019-04-27T03:31:13.878Z,12.40
2019-04-27T03:33:42.787Z,12.80
2019-04-27T03:36:12.968Z,12.47
2019-04-27T03:38:39.657Z,12.73
2019-04-27T03:41:09.355Z,13.10
2019-04-27T03:43:35.618Z,13.07
2019-04-27T03:46:02.720Z,11.93
2019-04-27T03:48:29.765Z,13.80
2019-04-27T03:51:09.971Z,11.57
2019-04-27T03:54:02.096Z,13.27
2019-04-27T03:56:41.710Z,14.50
2019-04-27T03:59:29.919Z,14.83
2019-04-27T04:01:58.914Z,12.03
2019-04-27T04:04:29.656Z,12.57
2019-04-27T04:07:11.767Z,12.40
2019-04-27T04:09:40.143Z,12.50
2019-04-27T04:12:11.742Z,12.13
2019-04-27T04:14:42.611Z,11.80
2019-04-27T04:17:12.785Z,11.23
2019-04-27T04:19:48.906Z,11.90
2019-04-27T04:22:09.991Z,11.30
2019-04-27T04:24:36.904Z,12.40
2019-04-27T04:27:03.917Z,11.83
2019-04-27T04:30:43.669Z,11.60
2019-04-27T04:33:10.617Z,11.37
2019-04-27T04:35:39.738Z,12.20
2019-04-27T04:38:07.096Z,11.17
2019-04-27T04:41:01.068Z,11.57
2019-04-27T04:43:52.046Z,10.43
2019-04-27T04:46:44.947Z,10.70
2019-04-27T04:49:13.065Z,12.00
2019-04-27T04:51:42.541Z,11.20
2019-04-27T04:54:09.963Z,10.10
2019-04-27T04:56:39.107Z,10.70
2019-04-27T04:59:10.044Z,9.73
2019-04-27T05:01:36.640Z,9.87
2019-04-27T05:04:03.531Z,9.90
2019-04-27T05:06:30.389Z,9.73
2019-04-27T05:08:57.121Z,9.73
2019-04-27T05:11:24.252Z,9.37
2019-04-27T05:14:24.789Z,9.33
2019-04-27T05:16:52.161Z,8.23
2019-04-27T05:19:19.027Z,8.60
2019-04-27T05:21:45.852Z,8.30
2019-04-27T05:24:12.577Z,8.23
2019-04-27T05:26:39.929Z,8.53
2019-04-27T05:29:20.399Z,8.00
2019-04-27T05:31:59.376Z,8.50
2019-04-27T05:34:26.536Z,7.83
2019-04-27T05:36:54.753Z,7.83
2019-04-27T05:39:24.984Z,7.53
2019-04-27T05:41:51.928Z,7.00
2019-04-27T05:44:41.412Z,7.60
2019-04-27T05:47:28.923Z,8.37
2019-04-27T05:49:59.688Z,7.60
2019-04-27T05:52:29.049Z,7.60
2019-04-27T05:55:01.341Z,6.77
2019-04-27T05:57:46.506Z,7.60
2019-04-27T06:00:23.427Z,7.13
2019-04-27T06:02:52.410Z,6.93
2019-04-27T06:05:22.495Z,5.97
2019-04-27T06:07:48.776Z,6.00
2019-04-27T06:10:15.749Z,5.93
2019-04-27T06:12:42.817Z,6.10
2019-04-27T06:15:09.953Z,6.07
2019-04-27T06:17:36.524Z,4.93
2019-04-27T06:20:06.247Z,4.63
2019-04-27T06:22:32.896Z,4.83
2019-04-27T06:25:00.403Z,4.30
2019-04-27T06:27:30.736Z,3.87
2019-04-27T06:30:09.337Z,3.83
2019-04-27T06:32:36.300Z,4.03
2019-04-27T06:35:04.283Z,4.13
2019-04-27T06:37:31.183Z,3.33
2019-04-27T06:40:00.066Z,3.67
2019-04-27T06:42:29.424Z,3.83
2019-04-27T06:44:55.887Z,3.30
2019-04-27T06:47:22.759Z,3.70
2019-04-27T06:49:49.632Z,3.10
2019-04-27T06:52:29.169Z,4.17
2019-04-27T06:54:56.472Z,3.30
2019-04-27T06:57:29.278Z,3.30
2019-04-27T06:59:59.094Z,3.13
2019-04-27T07:02:26.083Z,3.20
2019-04-27T07:04:59.668Z,3.37
2019-04-27T07:07:37.040Z,3.07
2019-04-27T07:10:04.014Z,3.03
2019-04-27T07:12:33.356Z,3.17
2019-04-27T07:15:00.406Z,2.93
2019-04-27T07:17:28.948Z,3.03
2019-04-27T07:19:56.714Z,2.70
2019-04-27T07:22:24.987Z,3.10
2019-04-27T07:24:54.851Z,3.27
2019-04-27T07:27:24.119Z,3.30
2019-04-27T07:29:53.672Z,3.30
2019-04-27T07:32:32.900Z,3.00
2019-04-27T07:35:10.142Z,3.03
2019-04-27T07:37:39.316Z,2.77
2019-04-27T07:40:10.465Z,3.37
2019-04-27T07:42:40.871Z,3.20
2019-04-27T07:45:11.802Z,3.00
2019-04-27T07:47:42.085Z,3.17
2019-04-27T07:50:09.699Z,2.90
2019-04-27T07:52:38.727Z,3.27
2019-04-27T07:55:05.313Z,3.60
2019-04-27T07:57:31.976Z,3.23
2019-04-27T07:59:59.727Z,3.27
2019-04-27T08:02:26.375Z,2.53
2019-04-27T08:04:53.123Z,2.93
2019-04-27T08:07:20.228Z,2.93
2019-04-27T08:09:49.670Z,2.93
2019-04-27T08:12:18.567Z,2.83
2019-04-27T08:14:46.026Z,3.17
2019-04-27T08:17:12.921Z,3.53
2019-04-27T08:19:39.939Z,2.83
2019-04-27T08:22:06.835Z,3.30
2019-04-27T08:24:35.244Z,3.03
2019-04-27T08:27:21.728Z,3.37
2019-04-27T08:30:10.867Z,3.47
2019-04-27T08:32:41.491Z,3.40
2019-04-27T08:35:09.561Z,2.80
2019-04-27T08:37:38.549Z,2.77
2019-04-27T08:40:06.098Z,3.07
2019-04-27T08:42:32.776Z,2.27
2019-04-27T08:44:59.554Z,2.50
2019-04-27T08:47:26.086Z,2.90
2019-04-27T08:49:55.863Z,1.80
2019-04-27T08:52:24.814Z,2.20
2019-04-27T08:54:52.593Z,1.83
2019-04-27T08:57:19.791Z,1.93
2019-04-27T08:59:53.487Z,1.87
2019-04-27T09:02:20.646Z,2.17
2019-04-27T09:04:47.353Z,2.67
2019-04-27T09:07:33.157Z,2.40
2019-04-27T09:10:05.799Z,2.60
2019-04-27T09:12:50.075Z,2.43
2019-04-27T09:15:22.191Z,2.77
2019-04-27T09:17:53.647Z,2.17
2019-04-27T09:20:26.334Z,3.00
2019-04-27T09:22:54.839Z,2.80
2019-04-27T09:25:21.667Z,3.30
2019-04-27T09:27:49.279Z,3.60
2019-04-27T09:37:36.631Z,1.97
2019-04-27T09:40:03.731Z,2.43
2019-04-27T09:42:30.282Z,1.83
2019-04-27T09:44:59.031Z,1.40
2019-04-27T09:47:26.643Z,2.93
2019-04-27T09:49:53.811Z,2.80
2019-04-27T09:52:26.141Z,3.20
2019-04-27T09:54:49.669Z,3.43
2019-04-27T09:57:16.267Z,2.00
2019-04-27T09:59:42.724Z,2.50
2019-04-27T10:02:09.583Z,2.63
2019-04-27T10:04:36.170Z,2.67
2019-04-27T10:07:02.926Z,2.80
2019-04-27T10:09:29.714Z,2.37
2019-04-27T10:11:56.298Z,3.10
2019-04-27T10:14:22.893Z,2.60
2019-04-27T10:16:49.364Z,3.10
2019-04-27T10:19:28.292Z,3.00
2019-04-27T10:21:44.408Z,3.73
2019-04-27T10:24:12.122Z,3.43
2019-04-27T10:26:38.938Z,3.43
2019-04-27T10:29:06.224Z,2.97
2019-04-27T10:31:32.797Z,2.63
2019-04-27T10:33:59.480Z,2.43
2019-04-27T10:36:38.880Z,1.60
2019-04-27T10:39:07.721Z,0.80
2019-04-27T10:41:34.310Z,1.57
2019-04-27T10:44:01.461Z,1.27
2019-04-27T10:46:27.993Z,1.60
2019-04-27T10:48:55.625Z,1.70
2019-04-27T10:51:22.514Z,1.63
2019-04-27T10:53:49.019Z,1.80
2019-04-27T10:56:15.547Z,2.07
2019-04-27T10:58:42.046Z,1.77
2019-04-27T11:01:08.601Z,1.30
2019-04-27T11:04:01.942Z,2.20
2019-04-27T11:06:35.041Z,1.50
2019-04-27T11:09:01.706Z,1.90
2019-04-27T11:11:28.273Z,1.60
2019-04-27T11:13:57.222Z,1.67
2019-04-27T11:16:24.572Z,1.50
2019-04-27T11:18:51.113Z,1.23
2019-04-27T11:21:17.766Z,1.40
2019-04-27T11:23:45.944Z,1.40
2019-04-27T11:26:12.662Z,1.33
2019-04-27T11:28:39.486Z,1.13
2019-04-27T11:31:06.465Z,1.17
2019-04-27T11:33:33.140Z,1.27
2019-04-27T11:36:19.846Z,1.43
2019-04-27T11:38:47.347Z,1.00
2019-04-27T11:41:14.082Z,1.00
2019-04-27T11:43:40.741Z,1.10
2019-04-27T11:46:07.626Z,1.00
2019-04-27T11:48:34.183Z,1.10
2019-04-27T11:51:00.700Z,1.70
2019-04-27T11:53:27.208Z,1.33
2019-04-27T11:55:53.726Z,1.13
2019-04-27T11:58:22.573Z,0.97
2019-04-27T12:00:49.070Z,0.83
2019-04-27T12:03:16.605Z,0.77
2019-04-27T12:05:43.214Z,0.83
2019-04-27T12:08:09.758Z,0.53
2019-04-27T12:10:36.474Z,1.50
2019-04-27T12:13:03.101Z,0.63
2019-04-27T12:15:29.713Z,0.57
2019-04-27T12:17:56.391Z,0.60
2019-04-27T12:20:23.593Z,0.70
2019-04-27T12:22:51.997Z,0.70
2019-04-27T12:25:18.935Z,0.60
2019-04-27T12:28:11.207Z,0.60
2019-04-27T12:30:57.428Z,0.70
2019-04-27T12:33:25.643Z,0.70
2019-04-27T12:35:53.198Z,0.80
2019-04-27T12:38:20.067Z,0.80
2019-04-27T12:40:46.689Z,1.50
2019-04-27T12:43:13.322Z,1.00
2019-04-27T12:45:42.018Z,1.10
2019-04-27T12:48:08.563Z,1.47
2019-04-27T12:50:36.151Z,1.60
2019-04-27T12:53:06.064Z,0.90
2019-04-27T12:56:07.370Z,0.90
2019-04-27T12:58:43.117Z,0.70
2019-04-27T13:01:15.456Z,0.60
2019-04-27T13:03:42.321Z,0.50
2019-04-27T13:06:08.979Z,0.77
2019-04-27T13:08:35.820Z,0.57
2019-04-27T13:11:02.823Z,0.40
2019-04-27T13:13:29.374Z,0.50
2019-04-27T13:15:56.433Z,0.40
2019-04-27T13:18:23.066Z,0.70
2019-04-27T13:20:49.814Z,0.50
2019-04-27T13:23:16.546Z,0.70
2019-04-27T13:25:44.044Z,0.63
2019-04-27T13:28:11.457Z,0.40
2019-04-27T13:30:37.947Z,0.40
2019-04-27T13:33:04.526Z,0.30
2019-04-27T13:35:33.988Z,0.43
2019-04-27T13:38:01.434Z,0.63
2019-04-27T13:40:29.441Z,0.70
2019-04-27T13:43:10.231Z,0.63
2019-04-27T13:45:50.992Z,0.40
2019-04-27T13:48:36.446Z,0.30
2019-04-27T13:51:06.644Z,0.50
2019-04-27T13:53:33.372Z,0.50
2019-04-27T13:56:14.151Z,0.60
2019-04-27T13:58:41.164Z,0.70
2019-04-27T14:01:07.925Z,0.70
2019-04-27T14:03:35.174Z,0.50
2019-04-27T14:06:01.824Z,0.77
2019-04-27T14:08:29.086Z,0.50
2019-04-27T14:10:56.077Z,0.60
2019-04-27T14:13:22.539Z,0.50
2019-04-27T14:15:49.168Z,0.50
2019-04-27T14:18:16.386Z,0.57
2019-04-27T14:20:45.369Z,0.73
2019-04-27T14:23:18.820Z,0.30
2019-04-27T14:25:45.647Z,0.57
2019-04-27T14:28:12.186Z,0.57
2019-04-27T14:30:40.038Z,0.50
2019-04-27T14:33:08.476Z,0.50
2019-04-27T14:35:35.030Z,0.73
2019-04-27T14:38:01.668Z,0.60
2019-04-27T14:40:28.838Z,0.77
2019-04-27T14:42:55.568Z,0.60
2019-04-27T14:45:22.158Z,0.60
2019-04-27T14:47:48.773Z,0.80
2019-04-27T14:50:15.593Z,0.63
2019-04-27T14:52:42.365Z,0.60
2019-04-27T14:55:09.420Z,0.60
2019-04-27T14:57:36.096Z,0.77
2019-04-27T15:00:03.243Z,0.77
2019-04-27T15:02:29.971Z,1.07
2019-04-27T15:04:56.540Z,0.77
2019-04-27T15:07:25.026Z,0.87
2019-04-27T15:09:54.426Z,0.70
2019-04-27T15:12:25.734Z,0.97
2019-04-27T15:14:49.008Z,0.50
2019-04-27T15:17:17.431Z,0.70
2019-04-27T15:19:52.793Z,0.67
2019-04-27T15:22:27.592Z,0.73
2019-04-27T15:25:06.391Z,0.97
2019-04-27T15:27:30.890Z,1.20
2019-04-27T15:30:03.050Z,0.60
2019-04-27T15:32:33.512Z,1.00
2019-04-27T15:35:09.820Z,1.27
2019-04-27T15:37:43.680Z,0.60
2019-04-27T15:40:36.216Z,0.87
2019-04-27T15:43:06.723Z,0.83
2019-04-27T15:45:33.362Z,1.00
2019-04-27T15:47:59.940Z,0.70
2019-04-27T15:50:28.486Z,1.20
2019-04-27T15:52:55.571Z,0.90
2019-04-27T15:55:32.276Z,1.17
2019-04-27T15:57:50.731Z,0.90
2019-04-27T16:00:28.772Z,0.87
2019-04-27T16:02:55.959Z,0.87
2019-04-27T16:05:27.836Z,0.90
2019-04-27T16:07:52.030Z,0.90
2019-04-27T16:10:20.182Z,1.10
2019-04-27T16:13:04.086Z,0.60
2019-04-27T16:15:17.628Z,0.90
2019-04-27T16:17:53.361Z,0.90
2019-04-27T16:20:22.066Z,0.80
2019-04-27T16:22:44.455Z,0.70
2019-04-27T16:25:11.257Z,0.93
2019-04-27T16:27:38.466Z,1.03
2019-04-27T16:30:11.555Z,0.70
2019-04-27T16:32:34.236Z,0.90
2019-04-27T16:35:01.228Z,0.67
2019-04-27T16:37:56.479Z,0.77
2019-04-27T16:40:25.642Z,0.93
2019-04-27T16:42:54.386Z,0.87
2019-04-27T16:45:22.965Z,1.00
2019-04-27T16:47:52.119Z,1.03
2019-04-27T16:50:25.392Z,1.00
2019-04-27T16:52:56.588Z,1.17
2019-04-27T16:55:19.790Z,1.10
2019-04-27T16:57:46.283Z,1.17
2019-04-27T17:00:18.131Z,0.90
2019-04-27T17:02:45.257Z,0.70
2019-04-27T17:05:13.996Z,1.00
2019-04-27T17:07:41.903Z,1.03
2019-04-27T17:10:09.400Z,1.30
2019-04-27T17:12:41.091Z,0.60
2019-04-27T17:15:24.605Z,0.70
2019-04-27T17:17:59.277Z,0.47
2019-04-27T17:20:28.144Z,0.30
2019-04-27T17:22:55.694Z,0.30
2019-04-27T17:25:23.477Z,0.40
2019-04-27T17:28:03.030Z,0.60
2019-04-27T17:30:32.523Z,0.67
2019-04-27T17:33:10.209Z,0.60
2019-04-27T17:35:34.716Z,0.50
2019-04-27T17:38:03.684Z,0.73
2019-04-27T17:40:34.538Z,0.60
2019-04-27T17:42:59.776Z,0.80
2019-04-27T17:45:33.780Z,1.13
2019-04-27T17:48:00.323Z,1.33
2019-04-27T17:50:26.267Z,1.30
2019-04-27T17:52:56.882Z,1.47
2019-04-27T17:55:24.263Z,1.43
2019-04-27T17:57:51.909Z,1.50
2019-04-27T18:00:19.384Z,1.30
2019-04-27T18:02:45.989Z,1.53
2019-04-27T18:05:13.866Z,1.60
2019-04-27T18:07:44.199Z,1.67
2019-04-27T18:10:12.897Z,0.90
2019-04-27T18:12:38.668Z,0.87
2019-04-27T18:15:05.419Z,0.93
2019-04-27T18:17:32.729Z,0.90
2019-04-27T18:20:02.018Z,0.80
2019-04-27T18:22:36.404Z,1.00
2019-04-27T18:25:06.815Z,0.90
2019-04-27T18:27:41.998Z,1.00
2019-04-27T18:30:16.657Z,1.40
2019-04-27T18:32:43.443Z,1.77
2019-04-27T18:35:10.500Z,1.60
2019-04-27T18:37:38.859Z,1.10
2019-04-27T18:40:06.640Z,1.20
2019-04-27T18:42:33.276Z,1.33
2019-04-27T18:45:06.080Z,1.00
2019-04-27T18:47:31.184Z,0.80
2019-04-27T18:50:28.198Z,0.93
2019-04-27T18:52:59.039Z,1.20
2019-04-27T18:55:25.634Z,0.97
2019-04-27T18:57:54.330Z,0.87
2019-04-27T19:00:20.981Z,0.60
2019-04-27T19:02:50.064Z,0.80
2019-04-27T19:05:16.180Z,0.93
2019-04-27T19:07:42.715Z,0.90
2019-04-27T19:10:09.625Z,1.43
2019-04-27T19:12:36.367Z,1.07
2019-04-27T19:15:03.798Z,1.00
2019-04-27T19:17:30.287Z,1.20
2019-04-27T19:19:56.827Z,0.90
2019-04-27T19:22:23.355Z,0.83
2019-04-27T19:24:49.862Z,0.70
2019-04-27T19:27:27.903Z,0.80
2019-04-27T19:29:58.880Z,0.90
2019-04-27T19:32:28.134Z,0.97
2019-04-27T19:34:55.171Z,0.90
2019-04-27T19:37:23.872Z,1.03
2019-04-27T19:39:50.485Z,1.03
2019-04-27T19:42:19.887Z,0.77
2019-04-27T19:44:45.626Z,0.90
2019-04-27T19:47:12.184Z,1.20
2019-04-27T19:49:38.910Z,0.80
2019-04-27T19:52:05.679Z,0.80
2019-04-27T19:54:32.230Z,0.90
2019-04-27T19:56:59.623Z,1.00
2019-04-27T19:59:38.524Z,1.20
2019-04-27T20:02:10.027Z,0.97
2019-04-27T20:04:38.404Z,0.97
2019-04-27T20:07:05.452Z,0.53
2019-04-27T20:09:38.709Z,0.80
2019-04-27T20:12:08.169Z,0.80
2019-04-27T20:14:53.523Z,1.00
2019-04-27T20:17:20.569Z,1.00
2019-04-27T20:19:49.310Z,0.67
2019-04-27T20:22:16.257Z,0.87
2019-04-27T20:24:43.976Z,1.17
2019-04-27T20:27:11.037Z,0.90
2019-04-27T20:29:37.702Z,0.80
2019-04-27T20:32:04.448Z,0.90
2019-04-27T20:34:31.170Z,1.20
2019-04-27T20:36:57.759Z,1.00
2019-04-27T20:39:28.392Z,0.97
2019-04-27T20:41:55.770Z,1.13
2019-04-27T20:44:23.798Z,0.97
2019-04-27T20:46:51.357Z,1.03
2019-04-27T20:49:19.751Z,1.03
2019-04-27T20:52:04.361Z,1.20
2019-04-27T20:54:32.678Z,1.20
2019-04-27T20:57:01.431Z,0.87
2019-04-27T20:59:27.994Z,0.90
2019-04-27T21:01:55.077Z,1.10
2019-04-27T21:04:25.951Z,1.20
2019-04-27T21:06:56.558Z,0.90
2019-04-27T21:09:23.276Z,1.13
2019-04-27T21:11:49.865Z,0.70
2019-04-27T21:14:16.739Z,1.23
2019-04-27T21:16:44.184Z,1.23
2019-04-27T21:19:11.068Z,1.30
2019-04-27T21:21:38.247Z,0.97
2019-04-27T21:24:06.573Z,1.23
2019-04-27T21:26:33.597Z,1.00
2019-04-27T21:29:02.463Z,1.07
2019-04-27T21:31:32.420Z,1.40
2019-04-27T21:34:02.162Z,1.10
2019-04-27T21:36:30.971Z,1.20
2019-04-27T21:38:58.059Z,1.03
2019-04-27T21:41:24.874Z,1.07
2019-04-27T21:43:51.543Z,1.10
2019-04-27T21:46:18.155Z,1.00
2019-04-27T21:48:44.967Z,1.20
2019-04-27T21:51:12.003Z,1.60
2019-04-27T21:53:51.488Z,1.00
2019-04-27T21:56:18.080Z,0.97
2019-04-27T21:58:45.055Z,1.40
2019-04-27T22:01:21.508Z,1.20
2019-04-27T22:03:48.633Z,1.17
2019-04-27T22:06:15.262Z,1.13
2019-04-27T22:08:41.947Z,1.37
2019-04-27T22:11:09.029Z,1.00
2019-04-27T22:13:37.075Z,1.10
2019-04-27T22:16:04.494Z,1.10
2019-04-27T22:18:31.475Z,1.20
2019-04-27T22:20:58.178Z,1.50
2019-04-27T22:23:37.384Z,1.53
2019-04-27T22:26:03.985Z,1.37
2019-04-27T22:28:44.039Z,1.10
2019-04-27T22:30:59.134Z,1.30
2019-04-27T22:33:25.826Z,1.60
2019-04-27T22:35:53.873Z,1.40
2019-04-27T22:38:20.451Z,1.93
2019-04-27T22:40:56.644Z,1.03
2019-04-27T22:43:44.673Z,1.20
2019-04-27T22:46:15.665Z,1.70
2019-04-27T22:48:42.231Z,1.50
2019-04-27T22:51:08.924Z,1.20
2019-04-27T22:53:35.465Z,1.27
2019-04-27T22:56:18.982Z,1.67
2019-04-27T22:59:05.279Z,1.67
2019-04-27T23:01:51.678Z,2.07
2019-04-27T23:04:23.295Z,1.40
2019-04-27T23:06:50.349Z,2.03
2019-04-27T23:09:16.873Z,1.10
2019-04-27T23:11:43.545Z,1.40
2019-04-27T23:14:11.102Z,1.43
2019-04-27T23:16:42.089Z,1.87
2019-04-27T23:19:10.786Z,2.23
2019-04-27T23:21:37.280Z,1.30
2019-04-27T23:24:03.948Z,1.80
2019-04-27T23:26:32.187Z,1.73
2019-04-27T23:29:12.294Z,1.60
2019-04-27T23:31:40.808Z,1.60
2019-04-27T23:34:07.746Z,2.83
2019-04-27T23:36:35.373Z,1.50
2019-04-27T23:39:02.139Z,1.80
2019-04-27T23:41:28.730Z,1.63
2019-04-27T23:43:56.054Z,2.07
2019-04-27T23:46:22.989Z,1.97
2019-04-27T23:48:51.967Z,1.90
2019-04-27T23:54:11.638Z,1.50
2019-04-27T23:56:38.203Z,1.53
2019-04-27T23:59:04.915Z,1.97
